Terminal Aerodrome Forecast
Issued by NWS St Louis, MO

Home | Current Version | Previous Version | Text Only | Print | Product List | Glossary On
Versions: 1 2 3 4 5 6 7 8 9 10 11 12 13 14 15 16 17 18 19 20 21 22 23 24 25 26 27 28 29 30
000
FTUS43 KLSX 301517 AAB
TAFCOU
TAF AMD
KCOU 301517Z 3015/3112 25010KT P6SM VCSH OVC015
      TEMPO 3015/3018 4SM SHRA
     FM301800 25010KT P6SM OVC025
     FM310100 27008KT P6SM VCSH OVC015
     FM310400 31010KT 6SM BR OVC008=

USA.gov is the U.S. government's official web portal to all federal, state and local government web resources and services.